sensor_id;sensor_type;location;lat;lon;timestamp;P1;durP1;ratioP1;P2;durP2;ratioP2
215;SDS011;70668;48.81286795;9.14184224;2023-12-14T00:00:10;4.90;;;3.10;;
215;SDS011;70668;48.81286795;9.14184224;2023-12-14T00:02:39;5.67;;;3.23;;
215;SDS011;70668;48.81286795;9.14184224;2023-12-14T00:05:11;6.97;;;3.30;;
215;SDS011;70668;48.81286795;9.14184224;2023-12-14T00:07:39;7.23;;;3.27;;
215;SDS011;70668;48.81286795;9.14184224;2023-12-14T00:10:08;6.20;;;2.93;;
215;SDS011;70668;48.81286795;9.14184224;2023-12-14T00:12:37;10.17;;;3.70;;
215;SDS011;70668;48.81286795;9.14184224;2023-12-14T00:15:06;5.00;;;2.87;;
215;SDS011;70668;48.81286795;9.14184224;2023-12-14T00:17:35;5.20;;;2.90;;
215;SDS011;70668;48.81286795;9.14184224;2023-12-14T00:20:05;5.50;;;3.20;;
215;SDS011;70668;48.81286795;9.14184224;2023-12-14T00:22:37;7.40;;;3.80;;
215;SDS011;70668;48.81286795;9.14184224;2023-12-14T00:25:06;10.63;;;4.57;;
215;SDS011;70668;48.81286795;9.14184224;2023-12-14T00:27:35;9.53;;;4.50;;
215;SDS011;70668;48.81286795;9.14184224;2023-12-14T00:30:04;8.57;;;4.23;;
215;SDS011;70668;48.81286795;9.14184224;2023-12-14T00:32:33;6.87;;;3.50;;
215;SDS011;70668;48.81286795;9.14184224;2023-12-14T00:35:02;5.90;;;3.27;;
215;SDS011;70668;48.81286795;9.14184224;2023-12-14T00:37:31;4.80;;;3.03;;
215;SDS011;70668;48.81286795;9.14184224;2023-12-14T00:40:02;4.97;;;3.10;;
215;SDS011;70668;48.81286795;9.14184224;2023-12-14T00:42:31;6.90;;;3.73;;
215;SDS011;70668;48.81286795;9.14184224;2023-12-14T00:44:59;5.20;;;3.00;;
215;SDS011;70668;48.81286795;9.14184224;2023-12-14T00:47:28;6.33;;;3.13;;
215;SDS011;70668;48.81286795;9.14184224;2023-12-14T00:49:56;4.77;;;2.80;;
215;SDS011;70668;48.81286795;9.14184224;2023-12-14T00:52:25;4.40;;;2.80;;
215;SDS011;70668;48.81286795;9.14184224;2023-12-14T00:54:53;5.50;;;2.70;;
215;SDS011;70668;48.81286795;9.14184224;2023-12-14T00:57:24;5.93;;;2.90;;
215;SDS011;70668;48.81286795;9.14184224;2023-12-14T00:59:53;5.20;;;2.77;;
215;SDS011;70668;48.81286795;9.14184224;2023-12-14T01:02:22;4.60;;;2.57;;
215;SDS011;70668;48.81286795;9.14184224;2023-12-14T01:04:50;7.60;;;2.80;;
215;SDS011;70668;48.81286795;9.14184224;2023-12-14T01:07:19;5.90;;;2.80;;
215;SDS011;70668;48.81286795;9.14184224;2023-12-14T01:09:47;4.60;;;2.47;;
215;SDS011;70668;48.81286795;9.14184224;2023-12-14T01:12:16;7.30;;;3.60;;
215;SDS011;70668;48.81286795;9.14184224;2023-12-14T01:14:47;11.10;;;4.37;;
215;SDS011;70668;48.81286795;9.14184224;2023-12-14T01:17:15;12.87;;;4.70;;
215;SDS011;70668;48.81286795;9.14184224;2023-12-14T01:19:44;9.00;;;3.90;;
215;SDS011;70668;48.81286795;9.14184224;2023-12-14T01:22:12;10.63;;;4.10;;
215;SDS011;70668;48.81286795;9.14184224;2023-12-14T01:24:41;11.47;;;4.57;;
215;SDS011;70668;48.81286795;9.14184224;2023-12-14T01:27:09;11.17;;;4.50;;
215;SDS011;70668;48.81286795;9.14184224;2023-12-14T01:29:39;6.47;;;3.10;;
215;SDS011;70668;48.81286795;9.14184224;2023-12-14T01:32:10;6.20;;;2.70;;
215;SDS011;70668;48.81286795;9.14184224;2023-12-14T01:34:39;6.83;;;3.00;;
215;SDS011;70668;48.81286795;9.14184224;2023-12-14T01:37:07;4.40;;;2.63;;
215;SDS011;70668;48.81286795;9.14184224;2023-12-14T01:39:36;6.43;;;2.87;;
215;SDS011;70668;48.81286795;9.14184224;2023-12-14T01:42:04;4.60;;;2.47;;
215;SDS011;70668;48.81286795;9.14184224;2023-12-14T01:44:33;10.03;;;2.80;;
215;SDS011;70668;48.81286795;9.14184224;2023-12-14T01:47:01;8.00;;;2.70;;
215;SDS011;70668;48.81286795;9.14184224;2023-12-14T01:49:32;17.03;;;3.20;;
215;SDS011;70668;48.81286795;9.14184224;2023-12-14T01:52:01;5.90;;;2.93;;
215;SDS011;70668;48.81286795;9.14184224;2023-12-14T01:54:29;4.60;;;2.73;;
215;SDS011;70668;48.81286795;9.14184224;2023-12-14T01:56:58;5.70;;;2.97;;
215;SDS011;70668;48.81286795;9.14184224;2023-12-14T01:59:27;5.50;;;2.90;;
215;SDS011;70668;48.81286795;9.14184224;2023-12-14T02:01:56;4.77;;;2.80;;
215;SDS011;70668;48.81286795;9.14184224;2023-12-14T02:04:26;5.57;;;2.70;;
215;SDS011;70668;48.81286795;9.14184224;2023-12-14T02:06:58;13.77;;;2.80;;
215;SDS011;70668;48.81286795;9.14184224;2023-12-14T02:09:26;6.10;;;2.57;;
215;SDS011;70668;48.81286795;9.14184224;2023-12-14T02:11:55;5.03;;;2.50;;
215;SDS011;70668;48.81286795;9.14184224;2023-12-14T02:14:23;5.77;;;2.57;;
215;SDS011;70668;48.81286795;9.14184224;2023-12-14T02:16:52;5.83;;;2.60;;
215;SDS011;70668;48.81286795;9.14184224;2023-12-14T02:19:20;5.60;;;2.20;;
215;SDS011;70668;48.81286795;9.14184224;2023-12-14T02:21:49;4.23;;;2.40;;
215;SDS011;70668;48.81286795;9.14184224;2023-12-14T02:24:20;5.17;;;2.60;;
215;SDS011;70668;48.81286795;9.14184224;2023-12-14T02:26:49;5.40;;;2.40;;
215;SDS011;70668;48.81286795;9.14184224;2023-12-14T02:29:17;6.30;;;2.40;;
215;SDS011;70668;48.81286795;9.14184224;2023-12-14T02:31:46;7.60;;;2.50;;
215;SDS011;70668;48.81286795;9.14184224;2023-12-14T02:34:15;4.27;;;2.40;;
215;SDS011;70668;48.81286795;9.14184224;2023-12-14T02:36:45;4.80;;;2.57;;
215;SDS011;70668;48.81286795;9.14184224;2023-12-14T02:39:13;5.23;;;2.40;;
215;SDS011;70668;48.81286795;9.14184224;2023-12-14T02:41:44;4.23;;;2.50;;
215;SDS011;70668;48.81286795;9.14184224;2023-12-14T02:44:13;5.97;;;2.60;;
215;SDS011;70668;48.81286795;9.14184224;2023-12-14T02:46:41;3.60;;;2.30;;
215;SDS011;70668;48.81286795;9.14184224;2023-12-14T02:49:10;4.77;;;2.50;;
215;SDS011;70668;48.81286795;9.14184224;2023-12-14T02:51:38;3.93;;;2.30;;
215;SDS011;70668;48.81286795;9.14184224;2023-12-14T02:54:07;3.90;;;2.53;;
215;SDS011;70668;48.81286795;9.14184224;2023-12-14T02:56:35;4.10;;;2.30;;
215;SDS011;70668;48.81286795;9.14184224;2023-12-14T02:59:06;6.10;;;2.20;;
215;SDS011;70668;48.81286795;9.14184224;2023-12-14T03:01:35;4.27;;;2.50;;
215;SDS011;70668;48.81286795;9.14184224;2023-12-14T03:04:04;4.20;;;2.60;;
215;SDS011;70668;48.81286795;9.14184224;2023-12-14T03:06:34;4.70;;;2.30;;
215;SDS011;70668;48.81286795;9.14184224;2023-12-14T03:09:02;5.20;;;2.57;;
215;SDS011;70668;48.81286795;9.14184224;2023-12-14T03:11:31;5.00;;;2.90;;
215;SDS011;70668;48.81286795;9.14184224;2023-12-14T03:13:59;4.83;;;2.70;;
215;SDS011;70668;48.81286795;9.14184224;2023-12-14T03:16:31;6.13;;;3.00;;
215;SDS011;70668;48.81286795;9.14184224;2023-12-14T03:19:00;5.90;;;2.70;;
215;SDS011;70668;48.81286795;9.14184224;2023-12-14T03:21:29;6.30;;;3.00;;
215;SDS011;70668;48.81286795;9.14184224;2023-12-14T03:23:57;4.70;;;2.90;;
215;SDS011;70668;48.81286795;9.14184224;2023-12-14T03:26:26;5.10;;;2.90;;
215;SDS011;70668;48.81286795;9.14184224;2023-12-14T03:28:54;5.70;;;2.50;;
215;SDS011;70668;48.81286795;9.14184224;2023-12-14T03:31:23;5.30;;;2.80;;
215;SDS011;70668;48.81286795;9.14184224;2023-12-14T03:33:54;5.87;;;2.70;;
215;SDS011;70668;48.81286795;9.14184224;2023-12-14T03:36:22;7.10;;;3.03;;
215;SDS011;70668;48.81286795;9.14184224;2023-12-14T03:38:51;8.00;;;2.90;;
215;SDS011;70668;48.81286795;9.14184224;2023-12-14T03:41:20;4.57;;;2.60;;
215;SDS011;70668;48.81286795;9.14184224;2023-12-14T03:43:48;8.20;;;2.90;;
215;SDS011;70668;48.81286795;9.14184224;2023-12-14T03:46:17;4.47;;;2.50;;
215;SDS011;70668;48.81286795;9.14184224;2023-12-14T03:48:45;4.07;;;2.20;;
215;SDS011;70668;48.81286795;9.14184224;2023-12-14T03:51:17;8.83;;;2.27;;
215;SDS011;70668;48.81286795;9.14184224;2023-12-14T03:53:45;6.03;;;2.20;;
215;SDS011;70668;48.81286795;9.14184224;2023-12-14T03:56:14;4.50;;;2.30;;
215;SDS011;70668;48.81286795;9.14184224;2023-12-14T03:58:43;3.77;;;2.57;;
215;SDS011;70668;48.81286795;9.14184224;2023-12-14T04:01:15;9.53;;;2.60;;
215;SDS011;70668;48.81286795;9.14184224;2023-12-14T04:03:44;6.33;;;2.57;;
215;SDS011;70668;48.81286795;9.14184224;2023-12-14T04:06:13;5.37;;;2.90;;
215;SDS011;70668;48.81286795;9.14184224;2023-12-14T04:08:45;4.90;;;2.60;;
215;SDS011;70668;48.81286795;9.14184224;2023-12-14T04:11:13;4.30;;;2.70;;
215;SDS011;70668;48.81286795;9.14184224;2023-12-14T04:13:42;8.00;;;3.00;;
215;SDS011;70668;48.81286795;9.14184224;2023-12-14T04:16:10;5.30;;;3.00;;
215;SDS011;70668;48.81286795;9.14184224;2023-12-14T04:18:38;6.80;;;3.50;;
215;SDS011;70668;48.81286795;9.14184224;2023-12-14T04:21:07;5.73;;;3.00;;
215;SDS011;70668;48.81286795;9.14184224;2023-12-14T04:23:38;5.13;;;3.10;;
215;SDS011;70668;48.81286795;9.14184224;2023-12-14T04:26:07;4.50;;;3.00;;
215;SDS011;70668;48.81286795;9.14184224;2023-12-14T04:28:35;5.23;;;3.33;;
215;SDS011;70668;48.81286795;9.14184224;2023-12-14T04:31:04;6.83;;;3.20;;
215;SDS011;70668;48.81286795;9.14184224;2023-12-14T04:33:32;5.20;;;3.10;;
215;SDS011;70668;48.81286795;9.14184224;2023-12-14T04:36:01;7.37;;;3.30;;
215;SDS011;70668;48.81286795;9.14184224;2023-12-14T04:38:29;6.53;;;2.93;;
215;SDS011;70668;48.81286795;9.14184224;2023-12-14T04:41:00;9.33;;;3.60;;
215;SDS011;70668;48.81286795;9.14184224;2023-12-14T04:43:29;6.80;;;3.73;;
215;SDS011;70668;48.81286795;9.14184224;2023-12-14T04:45:57;5.90;;;3.87;;
215;SDS011;70668;48.81286795;9.14184224;2023-12-14T04:48:26;5.50;;;3.63;;
215;SDS011;70668;48.81286795;9.14184224;2023-12-14T04:50:54;6.90;;;4.20;;
215;SDS011;70668;48.81286795;9.14184224;2023-12-14T04:53:23;7.47;;;4.27;;
215;SDS011;70668;48.81286795;9.14184224;2023-12-14T04:55:51;8.50;;;4.60;;
215;SDS011;70668;48.81286795;9.14184224;2023-12-14T04:58:22;9.53;;;4.50;;
215;SDS011;70668;48.81286795;9.14184224;2023-12-14T05:00:51;7.70;;;4.77;;
215;SDS011;70668;48.81286795;9.14184224;2023-12-14T05:03:19;8.13;;;4.70;;
215;SDS011;70668;48.81286795;9.14184224;2023-12-14T05:05:48;7.50;;;4.60;;
215;SDS011;70668;48.81286795;9.14184224;2023-12-14T05:08:16;8.23;;;4.60;;
215;SDS011;70668;48.81286795;9.14184224;2023-12-14T05:10:45;8.83;;;4.63;;
215;SDS011;70668;48.81286795;9.14184224;2023-12-14T05:13:13;8.63;;;4.60;;
215;SDS011;70668;48.81286795;9.14184224;2023-12-14T05:15:44;7.80;;;4.87;;
215;SDS011;70668;48.81286795;9.14184224;2023-12-14T05:18:13;7.47;;;4.70;;
215;SDS011;70668;48.81286795;9.14184224;2023-12-14T05:20:41;7.90;;;4.80;;
215;SDS011;70668;48.81286795;9.14184224;2023-12-14T05:23:11;7.40;;;4.50;;
215;SDS011;70668;48.81286795;9.14184224;2023-12-14T05:25:39;10.13;;;5.30;;
215;SDS011;70668;48.81286795;9.14184224;2023-12-14T05:28:08;8.83;;;4.93;;
215;SDS011;70668;48.81286795;9.14184224;2023-12-14T05:30:36;10.63;;;4.90;;
215;SDS011;70668;48.81286795;9.14184224;2023-12-14T05:33:07;9.60;;;5.13;;
215;SDS011;70668;48.81286795;9.14184224;2023-12-14T05:35:36;8.00;;;4.77;;
215;SDS011;70668;48.81286795;9.14184224;2023-12-14T05:38:04;9.33;;;4.90;;
215;SDS011;70668;48.81286795;9.14184224;2023-12-14T05:40:33;7.40;;;4.73;;
215;SDS011;70668;48.81286795;9.14184224;2023-12-14T05:43:02;10.63;;;5.40;;
215;SDS011;70668;48.81286795;9.14184224;2023-12-14T05:45:30;8.20;;;5.00;;
215;SDS011;70668;48.81286795;9.14184224;2023-12-14T05:47:59;7.57;;;5.03;;
215;SDS011;70668;48.81286795;9.14184224;2023-12-14T05:50:33;8.77;;;5.03;;
215;SDS011;70668;48.81286795;9.14184224;2023-12-14T05:53:01;7.93;;;5.13;;
215;SDS011;70668;48.81286795;9.14184224;2023-12-14T05:55:30;9.23;;;5.17;;
215;SDS011;70668;48.81286795;9.14184224;2023-12-14T05:57:58;8.57;;;5.53;;
215;SDS011;70668;48.81286795;9.14184224;2023-12-14T06:00:26;10.13;;;5.73;;
215;SDS011;70668;48.81286795;9.14184224;2023-12-14T06:02:55;9.93;;;5.50;;
215;SDS011;70668;48.81286795;9.14184224;2023-12-14T06:05:23;8.70;;;5.43;;
215;SDS011;70668;48.81286795;9.14184224;2023-12-14T06:07:54;11.03;;;5.63;;
215;SDS011;70668;48.81286795;9.14184224;2023-12-14T06:10:23;11.30;;;5.10;;
215;SDS011;70668;48.81286795;9.14184224;2023-12-14T06:12:51;10.13;;;5.53;;
215;SDS011;70668;48.81286795;9.14184224;2023-12-14T06:15:20;10.00;;;6.10;;
215;SDS011;70668;48.81286795;9.14184224;2023-12-14T06:17:48;9.97;;;5.90;;
215;SDS011;70668;48.81286795;9.14184224;2023-12-14T06:20:17;11.90;;;6.27;;
215;SDS011;70668;48.81286795;9.14184224;2023-12-14T06:22:45;11.60;;;6.57;;
215;SDS011;70668;48.81286795;9.14184224;2023-12-14T06:25:16;11.23;;;6.00;;
215;SDS011;70668;48.81286795;9.14184224;2023-12-14T06:27:45;10.20;;;6.33;;
215;SDS011;70668;48.81286795;9.14184224;2023-12-14T06:30:14;10.50;;;6.50;;
215;SDS011;70668;48.81286795;9.14184224;2023-12-14T06:32:43;12.43;;;6.30;;
215;SDS011;70668;48.81286795;9.14184224;2023-12-14T06:35:12;11.20;;;6.17;;
215;SDS011;70668;48.81286795;9.14184224;2023-12-14T06:37:40;12.00;;;5.93;;
215;SDS011;70668;48.81286795;9.14184224;2023-12-14T06:40:10;9.20;;;6.07;;
215;SDS011;70668;48.81286795;9.14184224;2023-12-14T06:42:41;10.40;;;5.60;;
215;SDS011;70668;48.81286795;9.14184224;2023-12-14T06:45:10;13.20;;;6.73;;
215;SDS011;70668;48.81286795;9.14184224;2023-12-14T06:47:39;12.87;;;6.90;;
215;SDS011;70668;48.81286795;9.14184224;2023-12-14T06:50:09;13.57;;;6.93;;
215;SDS011;70668;48.81286795;9.14184224;2023-12-14T06:52:38;10.50;;;6.43;;
215;SDS011;70668;48.81286795;9.14184224;2023-12-14T06:55:07;12.67;;;6.90;;
215;SDS011;70668;48.81286795;9.14184224;2023-12-14T06:57:37;11.80;;;7.20;;
215;SDS011;70668;48.81286795;9.14184224;2023-12-14T07:00:09;14.40;;;6.87;;
215;SDS011;70668;48.81286795;9.14184224;2023-12-14T07:02:38;13.70;;;6.70;;
215;SDS011;70668;48.81286795;9.14184224;2023-12-14T07:05:07;15.20;;;7.30;;
215;SDS011;70668;48.81286795;9.14184224;2023-12-14T07:07:35;11.53;;;6.90;;
215;SDS011;70668;48.81286795;9.14184224;2023-12-14T07:10:04;10.83;;;6.63;;
215;SDS011;70668;48.81286795;9.14184224;2023-12-14T07:12:33;10.57;;;6.83;;
215;SDS011;70668;48.81286795;9.14184224;2023-12-14T07:15:02;12.83;;;7.50;;
215;SDS011;70668;48.81286795;9.14184224;2023-12-14T07:17:33;12.67;;;7.60;;
215;SDS011;70668;48.81286795;9.14184224;2023-12-14T07:20:05;12.67;;;8.07;;
215;SDS011;70668;48.81286795;9.14184224;2023-12-14T07:22:35;11.10;;;7.60;;
215;SDS011;70668;48.81286795;9.14184224;2023-12-14T07:25:03;13.07;;;8.00;;
215;SDS011;70668;48.81286795;9.14184224;2023-12-14T07:27:32;13.07;;;7.80;;
215;SDS011;70668;48.81286795;9.14184224;2023-12-14T07:30:00;13.20;;;8.07;;
215;SDS011;70668;48.81286795;9.14184224;2023-12-14T07:32:29;12.27;;;7.97;;
215;SDS011;70668;48.81286795;9.14184224;2023-12-14T07:35:00;14.70;;;8.30;;
215;SDS011;70668;48.81286795;9.14184224;2023-12-14T07:37:28;15.80;;;8.20;;
215;SDS011;70668;48.81286795;9.14184224;2023-12-14T07:39:57;9.87;;;6.77;;
215;SDS011;70668;48.81286795;9.14184224;2023-12-14T07:42:25;11.97;;;7.30;;
215;SDS011;70668;48.81286795;9.14184224;2023-12-14T07:44:54;13.00;;;8.03;;
215;SDS011;70668;48.81286795;9.14184224;2023-12-14T07:47:22;15.13;;;7.57;;
215;SDS011;70668;48.81286795;9.14184224;2023-12-14T07:49:51;15.10;;;7.60;;
215;SDS011;70668;48.81286795;9.14184224;2023-12-14T07:52:22;15.20;;;8.30;;
215;SDS011;70668;48.81286795;9.14184224;2023-12-14T07:54:51;12.20;;;7.13;;
215;SDS011;70668;48.81286795;9.14184224;2023-12-14T07:57:19;43.30;;;7.70;;
215;SDS011;70668;48.81286795;9.14184224;2023-12-14T07:59:49;12.80;;;7.47;;
215;SDS011;70668;48.81286795;9.14184224;2023-12-14T08:02:17;13.10;;;7.67;;
215;SDS011;70668;48.81286795;9.14184224;2023-12-14T08:04:46;13.13;;;8.20;;
215;SDS011;70668;48.81286795;9.14184224;2023-12-14T08:07:14;13.50;;;8.40;;
215;SDS011;70668;48.81286795;9.14184224;2023-12-14T08:09:45;14.17;;;8.83;;
215;SDS011;70668;48.81286795;9.14184224;2023-12-14T08:12:14;13.80;;;8.30;;
215;SDS011;70668;48.81286795;9.14184224;2023-12-14T08:14:42;17.90;;;8.97;;
215;SDS011;70668;48.81286795;9.14184224;2023-12-14T08:17:11;18.43;;;10.80;;
215;SDS011;70668;48.81286795;9.14184224;2023-12-14T08:19:39;16.30;;;10.70;;
215;SDS011;70668;48.81286795;9.14184224;2023-12-14T08:22:08;16.23;;;10.03;;
215;SDS011;70668;48.81286795;9.14184224;2023-12-14T08:24:37;18.60;;;10.80;;
215;SDS011;70668;48.81286795;9.14184224;2023-12-14T08:27:09;17.73;;;11.20;;
215;SDS011;70668;48.81286795;9.14184224;2023-12-14T08:29:37;17.50;;;10.70;;
215;SDS011;70668;48.81286795;9.14184224;2023-12-14T08:32:06;19.67;;;10.73;;
215;SDS011;70668;48.81286795;9.14184224;2023-12-14T08:34:34;16.33;;;10.20;;
215;SDS011;70668;48.81286795;9.14184224;2023-12-14T08:37:03;17.37;;;9.87;;
215;SDS011;70668;48.81286795;9.14184224;2023-12-14T08:39:32;17.77;;;9.87;;
215;SDS011;70668;48.81286795;9.14184224;2023-12-14T08:42:00;20.33;;;10.10;;
215;SDS011;70668;48.81286795;9.14184224;2023-12-14T08:44:31;18.20;;;10.70;;
215;SDS011;70668;48.81286795;9.14184224;2023-12-14T08:47:00;17.80;;;9.83;;
215;SDS011;70668;48.81286795;9.14184224;2023-12-14T08:49:29;18.37;;;11.30;;
215;SDS011;70668;48.81286795;9.14184224;2023-12-14T08:51:58;18.13;;;11.10;;
215;SDS011;70668;48.81286795;9.14184224;2023-12-14T08:54:27;21.20;;;11.70;;
215;SDS011;70668;48.81286795;9.14184224;2023-12-14T08:56:55;19.47;;;12.00;;
215;SDS011;70668;48.81286795;9.14184224;2023-12-14T08:59:26;16.43;;;10.70;;
215;SDS011;70668;48.81286795;9.14184224;2023-12-14T09:01:57;17.37;;;11.10;;
215;SDS011;70668;48.81286795;9.14184224;2023-12-14T09:04:26;17.57;;;10.50;;
215;SDS011;70668;48.81286795;9.14184224;2023-12-14T09:06:54;16.20;;;10.40;;
215;SDS011;70668;48.81286795;9.14184224;2023-12-14T09:09:23;16.40;;;10.00;;
215;SDS011;70668;48.81286795;9.14184224;2023-12-14T09:11:52;16.67;;;10.30;;
215;SDS011;70668;48.81286795;9.14184224;2023-12-14T09:14:20;16.13;;;10.17;;
215;SDS011;70668;48.81286795;9.14184224;2023-12-14T09:16:48;15.90;;;9.83;;
215;SDS011;70668;48.81286795;9.14184224;2023-12-14T09:19:20;17.30;;;10.60;;
215;SDS011;70668;48.81286795;9.14184224;2023-12-14T09:21:48;20.03;;;11.00;;
215;SDS011;70668;48.81286795;9.14184224;2023-12-14T09:24:16;17.73;;;9.80;;
215;SDS011;70668;48.81286795;9.14184224;2023-12-14T09:26:45;17.03;;;10.50;;
215;SDS011;70668;48.81286795;9.14184224;2023-12-14T09:29:14;19.33;;;10.70;;
215;SDS011;70668;48.81286795;9.14184224;2023-12-14T09:31:42;20.93;;;11.57;;
215;SDS011;70668;48.81286795;9.14184224;2023-12-14T09:34:11;18.70;;;11.07;;
215;SDS011;70668;48.81286795;9.14184224;2023-12-14T09:36:43;19.30;;;11.10;;
215;SDS011;70668;48.81286795;9.14184224;2023-12-14T09:39:11;21.70;;;12.00;;
215;SDS011;70668;48.81286795;9.14184224;2023-12-14T09:41:40;21.10;;;12.10;;
215;SDS011;70668;48.81286795;9.14184224;2023-12-14T09:44:11;21.40;;;12.40;;
215;SDS011;70668;48.81286795;9.14184224;2023-12-14T09:46:40;19.50;;;11.80;;
215;SDS011;70668;48.81286795;9.14184224;2023-12-14T09:49:14;22.10;;;12.90;;
215;SDS011;70668;48.81286795;9.14184224;2023-12-14T09:51:46;22.00;;;13.03;;
215;SDS011;70668;48.81286795;9.14184224;2023-12-14T09:54:14;22.60;;;13.13;;
215;SDS011;70668;48.81286795;9.14184224;2023-12-14T09:56:46;22.50;;;13.20;;
215;SDS011;70668;48.81286795;9.14184224;2023-12-14T09:59:17;24.97;;;13.93;;
215;SDS011;70668;48.81286795;9.14184224;2023-12-14T10:01:46;27.90;;;13.20;;
215;SDS011;70668;48.81286795;9.14184224;2023-12-14T10:04:15;22.17;;;12.60;;
215;SDS011;70668;48.81286795;9.14184224;2023-12-14T10:06:47;22.73;;;12.70;;
215;SDS011;70668;48.81286795;9.14184224;2023-12-14T10:09:22;23.47;;;12.57;;
215;SDS011;70668;48.81286795;9.14184224;2023-12-14T10:11:51;25.40;;;14.43;;
215;SDS011;70668;48.81286795;9.14184224;2023-12-14T10:14:31;26.17;;;13.77;;
215;SDS011;70668;48.81286795;9.14184224;2023-12-14T10:17:01;29.53;;;13.70;;
215;SDS011;70668;48.81286795;9.14184224;2023-12-14T10:19:42;25.77;;;14.30;;
215;SDS011;70668;48.81286795;9.14184224;2023-12-14T10:22:14;26.23;;;14.37;;
215;SDS011;70668;48.81286795;9.14184224;2023-12-14T10:24:43;25.10;;;13.50;;
215;SDS011;70668;48.81286795;9.14184224;2023-12-14T10:27:13;26.83;;;14.53;;
215;SDS011;70668;48.81286795;9.14184224;2023-12-14T10:29:42;20.93;;;13.00;;
215;SDS011;70668;48.81286795;9.14184224;2023-12-14T10:32:11;24.40;;;13.77;;
215;SDS011;70668;48.81286795;9.14184224;2023-12-14T10:34:40;24.30;;;13.10;;
215;SDS011;70668;48.81286795;9.14184224;2023-12-14T10:37:09;23.60;;;13.27;;
215;SDS011;70668;48.81286795;9.14184224;2023-12-14T10:39:42;20.43;;;11.40;;
215;SDS011;70668;48.81286795;9.14184224;2023-12-14T10:42:10;22.13;;;11.70;;
215;SDS011;70668;48.81286795;9.14184224;2023-12-14T10:44:41;24.17;;;12.53;;
215;SDS011;70668;48.81286795;9.14184224;2023-12-14T10:47:11;25.50;;;11.67;;
215;SDS011;70668;48.81286795;9.14184224;2023-12-14T10:49:40;22.53;;;11.73;;
215;SDS011;70668;48.81286795;9.14184224;2023-12-14T10:52:10;19.80;;;11.50;;
215;SDS011;70668;48.81286795;9.14184224;2023-12-14T10:54:42;21.53;;;10.90;;
215;SDS011;70668;48.81286795;9.14184224;2023-12-14T10:57:12;21.63;;;11.53;;
215;SDS011;70668;48.81286795;9.14184224;2023-12-14T10:59:41;18.47;;;10.53;;
215;SDS011;70668;48.81286795;9.14184224;2023-12-14T11:02:10;20.67;;;11.30;;
215;SDS011;70668;48.81286795;9.14184224;2023-12-14T11:04:56;23.03;;;11.17;;
215;SDS011;70668;48.81286795;9.14184224;2023-12-14T11:10:15;19.30;;;10.60;;
215;SDS011;70668;48.81286795;9.14184224;2023-12-14T11:12:50;19.70;;;11.13;;
215;SDS011;70668;48.81286795;9.14184224;2023-12-14T11:15:19;21.07;;;10.30;;
215;SDS011;70668;48.81286795;9.14184224;2023-12-14T11:20:50;26.03;;;10.40;;
215;SDS011;70668;48.81286795;9.14184224;2023-12-14T11:23:26;20.57;;;10.63;;
215;SDS011;70668;48.81286795;9.14184224;2023-12-14T11:26:00;17.27;;;9.03;;
215;SDS011;70668;48.81286795;9.14184224;2023-12-14T11:28:31;18.77;;;9.93;;
215;SDS011;70668;48.81286795;9.14184224;2023-12-14T11:31:01;17.00;;;9.20;;
215;SDS011;70668;48.81286795;9.14184224;2023-12-14T11:33:32;17.90;;;9.47;;
215;SDS011;70668;48.81286795;9.14184224;2023-12-14T11:36:01;15.07;;;8.90;;
215;SDS011;70668;48.81286795;9.14184224;2023-12-14T11:38:31;19.60;;;9.20;;
215;SDS011;70668;48.81286795;9.14184224;2023-12-14T11:41:03;15.60;;;9.30;;
215;SDS011;70668;48.81286795;9.14184224;2023-12-14T11:43:38;18.03;;;10.00;;
215;SDS011;70668;48.81286795;9.14184224;2023-12-14T11:46:07;12.90;;;7.33;;
215;SDS011;70668;48.81286795;9.14184224;2023-12-14T11:48:35;16.03;;;8.27;;
215;SDS011;70668;48.81286795;9.14184224;2023-12-14T11:51:04;15.67;;;8.07;;
215;SDS011;70668;48.81286795;9.14184224;2023-12-14T11:53:33;12.57;;;7.30;;
215;SDS011;70668;48.81286795;9.14184224;2023-12-14T11:56:07;15.33;;;7.97;;
215;SDS011;70668;48.81286795;9.14184224;2023-12-14T11:58:36;9.70;;;4.90;;
215;SDS011;70668;48.81286795;9.14184224;2023-12-14T12:01:11;7.93;;;4.50;;
215;SDS011;70668;48.81286795;9.14184224;2023-12-14T12:03:41;5.90;;;3.60;;
215;SDS011;70668;48.81286795;9.14184224;2023-12-14T12:06:19;5.03;;;2.93;;
215;SDS011;70668;48.81286795;9.14184224;2023-12-14T12:08:48;7.10;;;4.03;;
215;SDS011;70668;48.81286795;9.14184224;2023-12-14T12:11:19;8.00;;;4.53;;
215;SDS011;70668;48.81286795;9.14184224;2023-12-14T12:13:50;10.57;;;5.07;;
215;SDS011;70668;48.81286795;9.14184224;2023-12-14T12:16:19;8.37;;;5.10;;
215;SDS011;70668;48.81286795;9.14184224;2023-12-14T12:18:48;8.60;;;5.23;;
215;SDS011;70668;48.81286795;9.14184224;2023-12-14T12:21:17;10.20;;;5.53;;
215;SDS011;70668;48.81286795;9.14184224;2023-12-14T12:23:45;9.23;;;4.87;;
215;SDS011;70668;48.81286795;9.14184224;2023-12-14T12:26:14;9.13;;;5.00;;
215;SDS011;70668;48.81286795;9.14184224;2023-12-14T12:28:45;8.30;;;4.73;;
215;SDS011;70668;48.81286795;9.14184224;2023-12-14T12:31:14;9.40;;;5.60;;
215;SDS011;70668;48.81286795;9.14184224;2023-12-14T12:33:42;7.27;;;4.50;;
215;SDS011;70668;48.81286795;9.14184224;2023-12-14T12:36:11;7.50;;;4.47;;
215;SDS011;70668;48.81286795;9.14184224;2023-12-14T12:38:40;7.17;;;4.00;;
215;SDS011;70668;48.81286795;9.14184224;2023-12-14T12:41:08;7.57;;;4.10;;
215;SDS011;70668;48.81286795;9.14184224;2023-12-14T12:43:37;7.40;;;3.77;;
215;SDS011;70668;48.81286795;9.14184224;2023-12-14T12:46:08;8.33;;;4.00;;
215;SDS011;70668;48.81286795;9.14184224;2023-12-14T12:48:36;6.73;;;4.07;;
215;SDS011;70668;48.81286795;9.14184224;2023-12-14T12:51:05;6.10;;;3.90;;
215;SDS011;70668;48.81286795;9.14184224;2023-12-14T12:53:34;11.30;;;4.70;;
215;SDS011;70668;48.81286795;9.14184224;2023-12-14T12:56:02;7.07;;;4.30;;
215;SDS011;70668;48.81286795;9.14184224;2023-12-14T12:58:31;8.40;;;4.70;;
215;SDS011;70668;48.81286795;9.14184224;2023-12-14T13:00:59;10.23;;;5.03;;
215;SDS011;70668;48.81286795;9.14184224;2023-12-14T13:03:30;9.60;;;5.30;;
215;SDS011;70668;48.81286795;9.14184224;2023-12-14T13:05:59;10.37;;;6.10;;
215;SDS011;70668;48.81286795;9.14184224;2023-12-14T13:08:28;10.67;;;6.37;;
215;SDS011;70668;48.81286795;9.14184224;2023-12-14T13:10:56;11.40;;;6.50;;
215;SDS011;70668;48.81286795;9.14184224;2023-12-14T13:13:25;12.37;;;6.90;;
215;SDS011;70668;48.81286795;9.14184224;2023-12-14T13:15:53;13.10;;;6.60;;
215;SDS011;70668;48.81286795;9.14184224;2023-12-14T13:18:22;13.20;;;6.90;;
215;SDS011;70668;48.81286795;9.14184224;2023-12-14T13:20:53;11.60;;;6.87;;